createdAt,value
2019-04-23T00:03:52.062Z,96726.36
2019-04-23T00:06:50.271Z,96726.08
2019-04-23T00:09:09.241Z,96721.06
2019-04-23T00:11:32.429Z,96712.36
2019-04-23T00:14:10.002Z,96714.42
2019-04-23T00:16:45.970Z,96706.46
2019-04-23T00:19:20.344Z,96709.35
2019-04-23T00:22:03.101Z,96710.61
2019-04-23T00:25:34.726Z,96706.89
2019-04-23T00:27:40.511Z,96704.44
2019-04-23T00:30:00.940Z,96707.86
2019-04-23T00:35:25.817Z,96707.05
2019-04-23T00:37:42.272Z,96704.40
2019-04-23T00:40:13.260Z,96696.95
2019-04-23T00:42:47.779Z,96690.88
2019-04-23T00:45:27.229Z,96689.84
2019-04-23T00:47:49.897Z,96696.42
2019-04-23T00:50:35.845Z,96690.88
2019-04-23T00:53:01.528Z,96687.42
2019-04-23T00:55:28.173Z,96687.91
2019-04-23T00:58:08.183Z,96679.42
2019-04-23T01:05:41.080Z,96676.14
2019-04-23T01:08:18.578Z,96676.66
2019-04-23T01:10:59.821Z,96669.31
2019-04-23T01:15:59.672Z,96667.73
2019-04-23T01:20:54.264Z,96672.18
2019-04-23T01:23:40.441Z,96675.01
2019-04-23T01:26:23.863Z,96675.79
2019-04-23T01:29:03.056Z,96665.48
2019-04-23T01:31:33.285Z,96661.78
2019-04-23T01:34:13.058Z,96664.41
2019-04-23T01:36:48.676Z,96660.22
2019-04-23T01:39:14.257Z,96654.61
2019-04-23T01:41:53.761Z,96650.62
2019-04-23T01:44:27.841Z,96652.97
2019-04-23T01:46:54.652Z,96655.81
2019-04-23T01:49:30.631Z,96657.33
2019-04-23T01:52:00.330Z,96650.94
2019-04-23T01:54:33.617Z,96653.17
2019-04-23T01:57:01.223Z,96649.94
2019-04-23T01:59:31.637Z,96639.41
2019-04-23T02:02:06.579Z,96636.02
2019-04-23T02:04:34.934Z,96641.51
2019-04-23T02:07:15.920Z,96633.39
2019-04-23T02:09:48.376Z,96635.23
2019-04-23T02:12:18.161Z,96633.13
2019-04-23T02:14:49.933Z,96635.75
2019-04-23T02:17:24.741Z,96633.47
2019-04-23T02:20:01.343Z,96638.73
2019-04-23T02:22:38.957Z,96629.66
2019-04-23T02:25:31.683Z,96625.95
2019-04-23T02:28:04.760Z,96624.07
2019-04-23T02:35:51.867Z,96613.55
2019-04-23T02:40:54.981Z,96612.94
2019-04-23T02:43:22.721Z,96611.11
2019-04-23T02:48:24.079Z,96604.84
2019-04-23T02:50:54.035Z,96598.56
2019-04-23T02:53:42.320Z,96594.31
2019-04-23T02:56:24.073Z,96594.54
2019-04-23T02:58:36.795Z,96593.74
2019-04-23T03:03:42.252Z,96587.10
2019-04-23T03:08:54.850Z,96582.23
2019-04-23T03:13:54.045Z,96582.55
2019-04-23T03:19:21.810Z,96577.78
2019-04-23T03:21:56.171Z,96574.27
2019-04-23T03:27:29.177Z,96561.31
2019-04-23T03:30:06.195Z,96563.95
2019-04-23T03:32:45.781Z,96561.81
2019-04-23T03:37:39.642Z,96559.09
2019-04-23T03:42:43.063Z,96553.82
2019-04-23T03:47:42.817Z,96560.28
2019-04-23T03:50:26.204Z,96559.22
2019-04-23T03:55:28.051Z,96562.80
2019-04-23T03:57:52.610Z,96554.69
2019-04-23T04:00:32.584Z,96561.80
2019-04-23T04:05:42.088Z,96548.13
2019-04-23T04:10:46.499Z,96541.70
2019-04-23T04:13:06.731Z,96541.91
2019-04-23T04:18:30.977Z,96536.09
2019-04-23T04:28:48.522Z,96533.20
2019-04-23T04:31:10.029Z,96537.06
2019-04-23T04:43:53.636Z,96529.81
2019-04-23T04:46:30.556Z,96521.65
2019-04-23T04:48:54.884Z,96528.72
2019-04-23T04:51:31.567Z,96520.85
2019-04-23T04:54:02.960Z,96526.09
2019-04-23T04:56:30.305Z,96517.94
2019-04-23T04:59:05.584Z,96516.38
2019-04-23T05:01:48.317Z,96519.39
2019-04-23T05:04:00.049Z,96518.05
2019-04-23T05:09:17.115Z,96517.91
2019-04-23T05:11:46.140Z,96512.83
2019-04-23T05:14:06.675Z,96511.06
2019-04-23T05:16:43.230Z,96509.63
2019-04-23T05:24:31.835Z,96503.84
2019-04-23T05:26:55.432Z,96493.83
2019-04-23T05:29:19.960Z,96497.83
2019-04-23T05:31:58.200Z,96495.71
2019-04-23T05:34:28.915Z,96497.08
2019-04-23T05:37:00.196Z,96501.67
2019-04-23T05:39:39.847Z,96500.97
2019-04-23T05:42:07.176Z,96493.58
2019-04-23T05:44:43.317Z,96499.88
2019-04-23T05:47:16.013Z,96496.25
2019-04-23T05:49:46.002Z,96498.45
2019-04-23T05:52:27.764Z,96492.42
2019-04-23T05:55:01.818Z,96496.94
2019-04-23T05:57:20.692Z,96487.69
2019-04-23T05:59:54.765Z,96489.83
2019-04-23T06:02:33.671Z,96489.63
2019-04-23T06:05:04.171Z,96486.26
2019-04-23T06:07:39.312Z,96482.83
2019-04-23T06:12:42.299Z,96488.95
2019-04-23T06:15:12.306Z,96479.54
2019-04-23T06:17:46.271Z,96481.16
2019-04-23T06:20:24.999Z,96480.15
2019-04-23T06:22:49.640Z,96483.31
2019-04-23T06:25:39.944Z,96479.17
2019-04-23T06:27:57.582Z,96479.14
2019-04-23T06:30:34.316Z,96484.40
2019-04-23T06:33:00.896Z,96488.41
2019-04-23T06:35:28.634Z,96487.64
2019-04-23T06:38:29.964Z,96481.91
2019-04-23T06:40:33.650Z,96486.94
2019-04-23T06:43:19.908Z,96483.59
2019-04-23T06:45:49.381Z,96487.83
2019-04-23T06:53:27.170Z,96478.63
2019-04-23T06:56:04.038Z,96483.39
2019-04-23T07:01:06.675Z,96486.84
2019-04-23T07:03:46.797Z,96484.42
2019-04-23T07:06:23.658Z,96480.20
2019-04-23T07:13:58.817Z,96472.89
2019-04-23T07:16:21.546Z,96464.30
2019-04-23T07:19:19.924Z,96466.46
2019-04-23T07:21:27.947Z,96463.30
2019-04-23T07:24:05.177Z,96459.36
2019-04-23T07:26:42.211Z,96453.30
2019-04-23T07:29:07.457Z,96450.20
2019-04-23T07:34:15.755Z,96439.21
2019-04-23T07:36:50.819Z,96439.02
2019-04-23T07:39:27.298Z,96432.77
2019-04-23T07:42:34.442Z,96422.02
2019-04-23T07:48:03.861Z,96415.80
2019-04-23T07:55:34.580Z,96413.30
2019-04-23T07:58:10.569Z,96408.34
2019-04-23T08:00:41.514Z,96407.83
2019-04-23T08:05:39.028Z,96401.03
2019-04-23T08:08:24.538Z,96402.39
2019-04-23T08:11:12.473Z,96400.84
2019-04-23T08:13:21.576Z,96393.48
2019-04-23T08:15:57.406Z,96393.72
2019-04-23T08:18:32.657Z,96390.62
2019-04-23T08:20:55.728Z,96394.05
2019-04-23T08:26:59.065Z,96385.65
2019-04-23T08:29:28.037Z,96384.38
2019-04-23T08:32:12.454Z,96385.42
2019-04-23T08:37:18.575Z,96388.63
2019-04-23T08:39:43.465Z,96392.09
2019-04-23T08:45:16.743Z,96385.47
2019-04-23T08:48:07.569Z,96389.98
2019-04-23T08:53:26.404Z,96395.58
2019-04-23T08:55:46.373Z,96394.55
2019-04-23T08:58:23.629Z,96388.77
2019-04-23T09:00:51.994Z,96392.23
2019-04-23T09:03:36.165Z,96392.75
2019-04-23T09:06:00.109Z,96388.05
2019-04-23T09:11:04.434Z,96393.41
2019-04-23T09:16:05.189Z,96383.44
2019-04-23T09:18:32.631Z,96383.70
2019-04-23T09:23:46.654Z,96375.05
2019-04-23T09:26:06.366Z,96383.75
2019-04-23T09:31:45.771Z,96375.86
2019-04-23T09:34:09.621Z,96366.61
2019-04-23T09:37:00.047Z,96364.78
2019-04-23T09:39:49.553Z,96368.47
2019-04-23T09:45:38.571Z,96380.61
2019-04-23T09:48:02.401Z,96374.56
2019-04-23T09:50:41.446Z,96369.27
2019-04-23T09:53:20.557Z,96367.67
2019-04-23T09:58:12.195Z,96365.56
2019-04-23T10:00:46.767Z,96362.43
2019-04-23T10:03:16.666Z,96367.97
2019-04-23T10:05:42.241Z,96367.41
2019-04-23T10:08:13.807Z,96369.80
2019-04-23T10:10:36.527Z,96370.30
2019-04-23T10:13:08.332Z,96369.00
2019-04-23T10:15:46.736Z,96361.34
2019-04-23T10:18:16.166Z,96365.55
2019-04-23T10:20:46.902Z,96357.33
2019-04-23T10:23:18.942Z,96359.45
2019-04-23T10:25:52.289Z,96357.30
2019-04-23T10:28:29.667Z,96344.33
2019-04-23T10:31:00.740Z,96351.19
2019-04-23T10:33:31.871Z,96352.52
2019-04-23T10:36:08.922Z,96351.18
2019-04-23T10:38:36.380Z,96346.39
2019-04-23T10:41:07.118Z,96349.59
2019-04-23T10:43:40.031Z,96347.70
2019-04-23T10:46:53.700Z,96346.91
2019-04-23T10:57:17.300Z,96356.38
2019-04-23T11:00:00.040Z,96352.67
2019-04-23T11:04:59.634Z,96353.16
2019-04-23T11:10:05.589Z,96349.16
2019-04-23T11:15:40.256Z,96348.82
2019-04-23T11:17:59.286Z,96350.60
2019-04-23T11:20:30.004Z,96342.36
2019-04-23T11:22:50.877Z,96345.00
2019-04-23T11:28:11.526Z,96337.81
2019-04-23T11:30:36.490Z,96334.91
2019-04-23T11:33:25.636Z,96337.78
2019-04-23T11:35:49.946Z,96328.20
2019-04-23T11:40:43.624Z,96338.69
2019-04-23T11:43:20.299Z,96339.69
2019-04-23T11:51:32.469Z,96327.58
2019-04-23T11:53:35.570Z,96331.95
2019-04-23T11:56:02.630Z,96334.56
2019-04-23T11:58:37.579Z,96334.76
2019-04-23T12:01:49.243Z,96341.61
2019-04-23T12:04:24.885Z,96340.58
2019-04-23T12:07:04.739Z,96343.46
2019-04-23T12:09:43.024Z,96330.22
2019-04-23T12:12:11.258Z,96328.55
2019-04-23T12:17:31.687Z,96323.33
2019-04-23T12:30:03.680Z,96321.13
2019-04-23T12:35:16.210Z,96324.88
2019-04-23T12:38:08.902Z,96331.09
2019-04-23T12:40:44.332Z,96326.50
2019-04-23T12:43:18.137Z,96332.33
2019-04-23T12:53:30.383Z,96340.83
2019-04-23T12:56:07.059Z,96339.98
2019-04-23T13:01:05.600Z,96329.94
2019-04-23T13:03:33.065Z,96333.34
2019-04-23T13:05:59.315Z,96327.20
2019-04-23T13:08:46.570Z,96324.80
2019-04-23T13:11:15.322Z,96330.30
2019-04-23T13:13:51.978Z,96334.05
2019-04-23T13:16:25.448Z,96326.31
2019-04-23T13:18:49.752Z,96331.61
2019-04-23T13:21:45.225Z,96327.01
2019-04-23T13:24:05.107Z,96323.77
2019-04-23T13:26:33.416Z,96326.95
2019-04-23T13:29:13.874Z,96330.88
2019-04-23T13:31:36.316Z,96343.66
2019-04-23T13:34:16.292Z,96340.84
2019-04-23T13:36:45.367Z,96338.59
2019-04-23T13:39:18.665Z,96345.81
2019-04-23T13:41:46.036Z,96343.70
2019-04-23T13:44:29.334Z,96342.67
2019-04-23T13:47:00.824Z,96356.73
2019-04-23T13:49:31.657Z,96346.20
2019-04-23T13:52:06.179Z,96354.66
2019-04-23T13:54:58.513Z,96345.63
2019-04-23T13:59:44.574Z,96341.50
2019-04-23T14:02:24.846Z,96338.84
2019-04-23T14:05:04.932Z,96333.28
2019-04-23T14:10:16.990Z,96336.23
2019-04-23T14:13:03.391Z,96328.46
2019-04-23T14:18:11.046Z,96332.75
2019-04-23T14:20:30.270Z,96325.81
2019-04-23T14:25:31.455Z,96320.39
2019-04-23T14:28:13.930Z,96323.70
2019-04-23T14:40:56.390Z,96328.48
2019-04-23T14:43:40.191Z,96333.83
2019-04-23T14:46:34.378Z,96329.09
2019-04-23T14:51:32.250Z,96332.19
2019-04-23T14:53:53.701Z,96328.44
2019-04-23T14:56:27.812Z,96331.34
2019-04-23T15:01:36.172Z,96331.30
2019-04-23T15:04:05.647Z,96326.30
2019-04-23T15:06:43.673Z,96321.48
2019-04-23T15:09:22.937Z,96319.37
2019-04-23T15:11:57.687Z,96325.77
2019-04-23T15:14:19.415Z,96321.31
2019-04-23T15:16:54.886Z,96321.80
2019-04-23T15:19:36.794Z,96321.58
2019-04-23T15:22:12.511Z,96321.80
2019-04-23T15:24:43.870Z,96318.34
2019-04-23T15:28:00.127Z,96317.81
2019-04-23T15:29:36.178Z,96315.44
2019-04-23T15:32:38.126Z,96317.55
2019-04-23T15:34:48.993Z,96314.81
2019-04-23T15:42:44.406Z,96323.24
2019-04-23T15:45:04.492Z,96316.44
2019-04-23T15:47:36.081Z,96319.41
2019-04-23T15:50:10.055Z,96317.81
2019-04-23T15:55:20.831Z,96319.37
2019-04-23T15:58:05.708Z,96318.84
2019-04-23T16:00:12.994Z,96319.89
2019-04-23T16:02:19.851Z,96321.27
2019-04-23T16:04:51.205Z,96321.27
2019-04-23T16:07:41.302Z,96318.34
2019-04-23T16:10:22.251Z,96315.52
2019-04-23T16:12:58.391Z,96315.17
2019-04-23T16:15:31.934Z,96309.06
2019-04-23T16:18:29.856Z,96306.90
2019-04-23T16:21:04.939Z,96311.41
2019-04-23T16:23:31.248Z,96310.07
2019-04-23T16:26:23.119Z,96306.09
2019-04-23T16:29:08.250Z,96311.14
2019-04-23T16:31:26.441Z,96312.73
2019-04-23T16:36:32.905Z,96312.20
2019-04-23T16:39:07.564Z,96318.56
2019-04-23T16:41:39.885Z,96312.42
2019-04-23T16:46:50.199Z,96311.05
2019-04-23T16:49:23.305Z,96312.37
2019-04-23T16:52:02.073Z,96305.58
2019-04-23T16:54:36.875Z,96310.88
2019-04-23T16:59:35.255Z,96305.30
2019-04-23T17:02:07.829Z,96306.64
2019-04-23T17:04:30.321Z,96307.16
2019-04-23T17:07:02.455Z,96312.72
2019-04-23T17:09:42.432Z,96302.92
2019-04-23T17:12:13.736Z,96310.39
2019-04-23T17:14:48.198Z,96310.09
2019-04-23T17:17:13.257Z,96313.00
2019-04-23T17:19:53.019Z,96312.25
2019-04-23T17:22:38.440Z,96314.73
2019-04-23T17:25:07.374Z,96314.30
2019-04-23T17:27:29.774Z,96312.80
2019-04-23T17:30:09.673Z,96313.84
2019-04-23T17:32:55.888Z,96313.88
2019-04-23T17:35:24.469Z,96307.91
2019-04-23T17:38:00.511Z,96306.67
2019-04-23T17:40:30.623Z,96310.44
2019-04-23T17:43:05.938Z,96317.41
2019-04-23T17:45:35.797Z,96325.14
2019-04-23T17:50:56.609Z,96313.87
2019-04-23T17:53:30.114Z,96319.58
2019-04-23T17:58:34.213Z,96327.94
2019-04-23T18:01:27.887Z,96326.42
2019-04-23T18:04:04.056Z,96327.22
2019-04-23T18:06:37.272Z,96329.44
2019-04-23T18:09:14.346Z,96334.20
2019-04-23T18:11:53.979Z,96330.30
2019-04-23T18:14:08.359Z,96336.45
2019-04-23T18:19:22.824Z,96335.53
2019-04-23T18:22:19.030Z,96342.68
2019-04-23T18:25:04.162Z,96342.29
2019-04-23T18:27:38.631Z,96341.81
2019-04-23T18:35:46.060Z,96348.48
2019-04-23T18:38:29.174Z,96352.26
2019-04-23T18:45:59.214Z,96369.26
2019-04-23T18:48:43.863Z,96376.72
2019-04-23T18:53:43.748Z,96381.25
2019-04-23T18:56:12.472Z,96381.81
2019-04-23T19:06:45.229Z,96394.53
2019-04-23T19:10:13.668Z,96397.19
2019-04-23T19:12:42.766Z,96396.13
2019-04-23T19:15:24.728Z,96397.17
2019-04-23T19:17:56.487Z,96403.28
2019-04-23T19:20:39.763Z,96403.27
2019-04-23T19:22:58.540Z,96409.89
2019-04-23T19:28:30.328Z,96415.98
2019-04-23T19:30:46.199Z,96415.17
2019-04-23T19:33:29.536Z,96422.30
2019-04-23T19:36:09.079Z,96420.73
2019-04-23T19:38:26.745Z,96421.52
2019-04-23T19:40:58.244Z,96420.73
2019-04-23T19:43:33.724Z,96419.17
2019-04-23T19:48:44.603Z,96416.25
2019-04-23T19:51:08.742Z,96420.21
2019-04-23T19:53:54.876Z,96423.12
2019-04-23T19:58:56.766Z,96412.56
2019-04-23T20:01:23.881Z,96414.40
2019-04-23T20:03:56.209Z,96415.99
2019-04-23T20:11:34.576Z,96416.27
2019-04-23T20:16:48.872Z,96411.23
2019-04-23T20:19:18.773Z,96411.48
2019-04-23T20:22:05.945Z,96413.33
2019-04-23T20:24:52.616Z,96410.16
2019-04-23T20:27:09.269Z,96410.42
2019-04-23T20:33:12.615Z,96411.47
2019-04-23T20:37:48.944Z,96414.38
2019-04-23T20:42:27.476Z,96411.22
2019-04-23T20:44:58.839Z,96415.69
2019-04-23T20:47:33.494Z,96419.14
2019-04-23T20:49:51.829Z,96411.74
2019-04-23T20:52:37.578Z,96410.17
2019-04-23T20:55:08.095Z,96418.59
2019-04-23T20:57:55.588Z,96420.45
2019-04-23T21:00:36.793Z,96423.34
2019-04-23T21:05:27.905Z,96425.97
2019-04-23T21:08:44.230Z,96422.53
2019-04-23T21:10:40.500Z,96429.39
2019-04-23T21:13:27.766Z,96425.44
2019-04-23T21:15:54.602Z,96423.61
2019-04-23T21:18:25.684Z,96426.77
2019-04-23T21:20:50.998Z,96427.79
2019-04-23T21:23:32.207Z,96430.41
2019-04-23T21:25:52.416Z,96418.80
2019-04-23T21:31:25.347Z,96428.55
2019-04-23T21:34:04.237Z,96433.54
2019-04-23T21:36:38.518Z,96439.06
2019-04-23T21:39:29.310Z,96441.94
2019-04-23T21:42:14.813Z,96442.67
2019-04-23T21:44:28.880Z,96443.22
2019-04-23T21:47:04.201Z,96442.95
2019-04-23T21:49:47.079Z,96440.77
2019-04-23T21:54:47.233Z,96438.56
2019-04-23T21:57:18.022Z,96434.09
2019-04-23T21:59:50.458Z,96437.20
2019-04-23T22:02:21.948Z,96440.11
2019-04-23T22:05:04.222Z,96443.20
2019-04-23T22:07:40.754Z,96441.09
2019-04-23T22:10:02.561Z,96442.92
2019-04-23T22:12:42.761Z,96440.01
2019-04-23T22:15:07.232Z,96441.02
2019-04-23T22:17:39.308Z,96441.92
2019-04-23T22:20:21.415Z,96451.67
2019-04-23T22:22:59.921Z,96450.56
2019-04-23T22:25:13.461Z,96445.47
2019-04-23T22:27:54.459Z,96448.08
2019-04-23T22:30:21.381Z,96448.60
2019-04-23T22:33:11.254Z,96452.22
2019-04-23T22:35:24.916Z,96449.77
2019-04-23T22:38:08.551Z,96448.69
2019-04-23T22:40:25.707Z,96447.44
2019-04-23T22:43:14.942Z,96448.41
2019-04-23T22:45:47.982Z,96450.16
2019-04-23T22:48:11.626Z,96453.86
2019-04-23T22:53:09.219Z,96452.48
2019-04-23T22:58:19.479Z,96459.39
2019-04-23T23:01:23.740Z,96471.47
2019-04-23T23:03:52.490Z,96469.55
2019-04-23T23:06:36.789Z,96474.95
2019-04-23T23:09:25.716Z,96468.38
2019-04-23T23:11:30.309Z,96473.40
2019-04-23T23:16:31.745Z,96466.41
2019-04-23T23:19:14.873Z,96469.48
2019-04-23T23:21:49.822Z,96471.97
2019-04-23T23:24:07.465Z,96472.45
2019-04-23T23:26:49.545Z,96474.09
2019-04-23T23:29:13.567Z,96467.56
2019-04-23T23:31:54.203Z,96469.73
2019-04-23T23:37:03.201Z,96465.45
2019-04-23T23:41:56.446Z,96467.58
2019-04-23T23:47:07.305Z,96469.18
2019-04-23T23:49:34.266Z,96472.27
2019-04-23T23:52:27.983Z,96475.15
2019-04-23T23:54:36.059Z,96466.28
